Time;durP1;ratioP1;P1;durP2;ratioP2;P2;SDS_P1;SDS_P2;PMS_P1;PMS_P2;Temp;Humidity;BMP_temperature;BMP_pressure;BME280_temperature;BME280_humidity;BME280_pressure;Samples;Min_cycle;Max_cycle;Signal;HPM_P1;HPM_P2
2022/10/20 00:02:25;;;;;;;28.33;21.60;;;;;;;;;;5055330;28;20224;-63
2022/10/20 00:04:52;;;;;;;24.80;21.43;;;;;;;;;;5066445;28;20201;-61
2022/10/20 00:07:19;;;;;;;26.93;21.30;;;;;;;;;;5063139;28;20285;-62
2022/10/20 00:09:47;;;;;;;26.73;20.60;;;;;;;;;;5060669;28;20288;-62
2022/10/20 00:12:14;;;;;;;25.43;20.30;;;;;;;;;;5065591;28;20650;-61
2022/10/20 00:14:41;;;;;;;24.38;20.55;;;;;;;;;;5064007;28;20885;-63
2022/10/20 00:17:09;;;;;;;27.23;20.05;;;;;;;;;;5061829;28;20205;-61
2022/10/20 00:19:36;;;;;;;28.50;20.17;;;;;;;;;;5059045;28;20221;-61
2022/10/20 00:22:03;;;;;;;26.77;22.03;;;;;;;;;;5061714;28;20198;-62
2022/10/20 00:24:31;;;;;;;29.10;22.03;;;;;;;;;;5064189;28;20288;-62
2022/10/20 00:26:58;;;;;;;27.43;21.33;;;;;;;;;;5067081;28;20281;-61
2022/10/20 00:29:25;;;;;;;26.43;20.30;;;;;;;;;;5073812;28;20252;-60
2022/10/20 00:31:52;;;;;;;32.60;22.03;;;;;;;;;;5067039;28;20201;-61
2022/10/20 00:34:20;;;;;;;27.30;21.67;;;;;;;;;;5065700;28;20217;-62
2022/10/20 00:36:47;;;;;;;25.40;20.08;;;;;;;;;;5050105;28;20675;-61
2022/10/20 00:39:17;;;;;;;25.15;21.15;;;;;;;;;;5057299;28;20317;-63
2022/10/20 00:41:44;;;;;;;25.77;20.17;;;;;;;;;;5060760;28;20201;-61
2022/10/20 00:44:30;;;;;;;27.87;21.13;;;;;;;;;;5062621;28;20289;-61
2022/10/20 00:46:58;;;;;;;28.80;20.63;;;;;;;;;;5055725;28;20211;-60
2022/10/20 00:49:26;;;;;;;24.40;19.87;;;;;;;;;;5051741;28;20225;-61
2022/10/20 00:51:53;;;;;;;27.47;21.27;;;;;;;;;;5069785;28;20225;-61
2022/10/20 00:54:23;;;;;;;28.07;20.73;;;;;;;;;;5056660;28;21771;-61
2022/10/20 00:56:51;;;;;;;31.10;22.83;;;;;;;;;;5058453;28;20215;-61
2022/10/20 00:59:20;;;;;;;26.03;21.00;;;;;;;;;;5057851;28;20229;-62
2022/10/20 01:01:48;;;;;;;27.20;20.60;;;;;;;;;;5054062;28;20214;-62
2022/10/20 01:04:16;;;;;;;29.05;21.77;;;;;;;;;;5052486;28;20225;-61
2022/10/20 01:06:44;;;;;;;27.47;21.80;;;;;;;;;;5050134;28;20311;-61
2022/10/20 01:09:11;;;;;;;28.85;20.45;;;;;;;;;;5050784;28;20225;-61
2022/10/20 01:11:44;;;;;;;27.97;21.63;;;;;;;;;;5045586;28;20204;-61
2022/10/20 01:14:15;;;;;;;28.17;22.47;;;;;;;;;;5065192;28;20214;-61
2022/10/20 01:16:48;;;;;;;31.50;24.20;;;;;;;;;;5056984;28;20225;-61
2022/10/20 01:19:18;;;;;;;37.60;25.63;;;;;;;;;;5046503;28;20340;-62
2022/10/20 01:21:55;;;;;;;36.93;25.77;;;;;;;;;;5044756;28;20584;-61
2022/10/20 01:24:41;;;;;;;34.33;25.90;;;;;;;;;;5050205;28;20209;-61
2022/10/20 01:27:29;;;;;;;33.40;24.17;;;;;;;;;;5048770;28;20202;-63
2022/10/20 01:30:16;;;;;;;31.17;23.03;;;;;;;;;;5051246;28;20224;-61
2022/10/20 01:32:53;;;;;;;30.93;23.23;;;;;;;;;;5051222;28;20583;-62
2022/10/20 01:35:41;;;;;;;29.33;22.33;;;;;;;;;;5055624;28;20663;-62
2022/10/20 01:38:27;;;;;;;31.97;23.30;;;;;;;;;;5058500;28;20300;-62
2022/10/20 01:41:15;;;;;;;27.77;21.67;;;;;;;;;;5072847;28;20312;-62
2022/10/20 01:43:44;;;;;;;32.23;23.17;;;;;;;;;;5021449;28;20284;-62
2022/10/20 01:46:12;;;;;;;33.20;23.60;;;;;;;;;;5055559;28;20209;-62
2022/10/20 01:48:40;;;;;;;35.00;24.67;;;;;;;;;;5066179;28;20236;-61
2022/10/20 01:51:08;;;;;;;32.53;23.77;;;;;;;;;;5071603;28;20205;-61
2022/10/20 01:53:35;;;;;;;40.83;26.17;;;;;;;;;;5048766;28;20240;-62
2022/10/20 01:56:03;;;;;;;35.37;25.40;;;;;;;;;;5061116;28;20328;-61
2022/10/20 01:58:42;;;;;;;38.53;27.17;;;;;;;;;;5064016;28;20228;-61
2022/10/20 02:01:14;;;;;;;39.20;26.20;;;;;;;;;;5058054;28;20232;-61
2022/10/20 02:04:02;;;;;;;36.47;24.33;;;;;;;;;;5041471;28;20206;-62
2022/10/20 02:06:39;;;;;;;38.10;24.47;;;;;;;;;;5042417;28;20544;-61
2022/10/20 02:09:15;;;;;;;33.83;24.40;;;;;;;;;;5049809;28;20250;-63
2022/10/20 02:11:55;;;;;;;35.20;24.03;;;;;;;;;;5054946;28;20235;-61
2022/10/20 02:14:23;;;;;;;31.30;23.47;;;;;;;;;;5046588;28;20241;-63
2022/10/20 02:16:58;;;;;;;34.97;23.40;;;;;;;;;;5053232;28;20216;-61
2022/10/20 02:19:29;;;;;;;33.57;24.07;;;;;;;;;;5051323;28;20241;-63
2022/10/20 02:21:56;;;;;;;34.97;24.83;;;;;;;;;;5058725;28;20201;-63
2022/10/20 02:24:29;;;;;;;32.73;24.07;;;;;;;;;;5058577;28;20201;-61
2022/10/20 02:26:58;;;;;;;34.33;23.13;;;;;;;;;;5062016;28;20292;-63
2022/10/20 02:29:28;;;;;;;32.27;21.87;;;;;;;;;;5060497;28;20253;-63
2022/10/20 02:31:55;;;;;;;32.60;22.83;;;;;;;;;;5059352;28;20209;-62
2022/10/20 02:34:25;;;;;;;33.50;22.63;;;;;;;;;;5061939;28;20639;-62
2022/10/20 02:36:54;;;;;;;31.07;22.30;;;;;;;;;;5055151;28;20197;-61
2022/10/20 02:39:22;;;;;;;33.07;22.60;;;;;;;;;;5052580;28;20315;-61
2022/10/20 02:41:49;;;;;;;32.23;22.97;;;;;;;;;;5054434;28;20264;-61
2022/10/20 02:44:17;;;;;;;32.90;22.33;;;;;;;;;;5059121;28;20202;-62
2022/10/20 02:46:44;;;;;;;40.83;24.27;;;;;;;;;;5066722;28;20296;-62
2022/10/20 02:49:11;;;;;;;41.90;23.37;;;;;;;;;;5059615;28;20226;-61
2022/10/20 02:51:38;;;;;;;42.50;23.27;;;;;;;;;;5056984;28;20217;-61
2022/10/20 02:54:06;;;;;;;53.37;23.30;;;;;;;;;;5064103;28;20718;-61
2022/10/20 02:56:33;;;;;;;35.77;23.83;;;;;;;;;;5052469;28;20627;-61
2022/10/20 02:59:00;;;;;;;38.43;24.37;;;;;;;;;;5071672;28;20225;-63
2022/10/20 03:01:28;;;;;;;38.47;25.90;;;;;;;;;;5059047;28;20234;-62
2022/10/20 03:03:58;;;;;;;45.53;24.67;;;;;;;;;;5064884;28;20209;-61
2022/10/20 03:06:26;;;;;;;39.73;24.97;;;;;;;;;;5056105;28;20727;-63
2022/10/20 03:08:53;;;;;;;36.90;24.90;;;;;;;;;;5065434;28;20616;-63
2022/10/20 03:11:20;;;;;;;56.73;26.37;;;;;;;;;;5056959;28;20200;-61
2022/10/20 03:13:48;;;;;;;59.80;26.03;;;;;;;;;;5058082;28;20217;-61
2022/10/20 03:16:15;;;;;;;40.30;26.10;;;;;;;;;;5062397;28;20284;-60
2022/10/20 03:18:42;;;;;;;45.40;25.47;;;;;;;;;;5050846;28;20882;-63
2022/10/20 03:21:10;;;;;;;40.23;25.23;;;;;;;;;;5055661;28;20229;-61
2022/10/20 03:23:37;;;;;;;36.33;24.43;;;;;;;;;;5052443;28;20285;-61
2022/10/20 03:26:06;;;;;;;91.93;23.63;;;;;;;;;;5045300;28;20224;-61
2022/10/20 03:28:33;;;;;;;40.03;23.90;;;;;;;;;;5043872;28;20723;-61
2022/10/20 03:31:00;;;;;;;36.83;23.50;;;;;;;;;;5053937;28;20223;-63
2022/10/20 03:33:28;;;;;;;52.93;24.03;;;;;;;;;;5052222;28;20220;-62
2022/10/20 03:35:55;;;;;;;73.70;24.13;;;;;;;;;;5045376;28;20202;-63
2022/10/20 03:38:23;;;;;;;67.37;25.57;;;;;;;;;;5063682;28;20217;-61
2022/10/20 03:40:50;;;;;;;45.33;24.53;;;;;;;;;;5060730;28;20781;-63
2022/10/20 03:43:17;;;;;;;41.93;24.77;;;;;;;;;;5063144;28;20224;-61
2022/10/20 03:45:44;;;;;;;43.63;24.50;;;;;;;;;;5060837;28;20215;-61
2022/10/20 03:48:12;;;;;;;38.33;23.33;;;;;;;;;;5052388;28;20225;-62
2022/10/20 03:50:41;;;;;;;40.90;24.33;;;;;;;;;;5057306;28;20302;-61
2022/10/20 03:53:11;;;;;;;33.77;23.20;;;;;;;;;;5066867;28;20202;-63
2022/10/20 03:55:39;;;;;;;44.67;23.03;;;;;;;;;;5067709;28;20699;-61
2022/10/20 03:58:06;;;;;;;45.87;21.80;;;;;;;;;;5063954;28;20298;-62
2022/10/20 04:00:33;;;;;;;35.80;22.03;;;;;;;;;;5057818;28;20223;-62
2022/10/20 04:03:01;;;;;;;42.57;23.07;;;;;;;;;;5060577;28;20296;-60
2022/10/20 04:05:28;;;;;;;52.43;23.37;;;;;;;;;;5060553;28;20262;-61
2022/10/20 04:07:55;;;;;;;50.93;22.37;;;;;;;;;;5077545;28;20323;-61
2022/10/20 04:10:22;;;;;;;47.60;22.33;;;;;;;;;;5066981;28;20288;-63
2022/10/20 04:12:50;;;;;;;60.47;23.57;;;;;;;;;;5065322;28;20490;-61
2022/10/20 04:15:17;;;;;;;53.93;22.43;;;;;;;;;;5068478;28;20281;-61
2022/10/20 04:17:45;;;;;;;69.40;22.97;;;;;;;;;;5070290;28;20226;-61
2022/10/20 04:20:12;;;;;;;61.60;23.37;;;;;;;;;;5060895;28;20237;-63
2022/10/20 04:22:39;;;;;;;44.30;24.53;;;;;;;;;;5061153;28;20216;-61
2022/10/20 04:25:07;;;;;;;53.27;24.43;;;;;;;;;;5053656;28;20363;-61
2022/10/20 04:27:34;;;;;;;67.33;25.33;;;;;;;;;;5060760;28;20409;-62
2022/10/20 04:30:03;;;;;;;50.80;24.53;;;;;;;;;;5066825;28;20201;-63
2022/10/20 04:32:31;;;;;;;42.60;24.00;;;;;;;;;;5066610;28;20208;-61
2022/10/20 04:34:58;;;;;;;43.93;24.17;;;;;;;;;;5067441;28;20309;-61
2022/10/20 04:37:25;;;;;;;49.63;26.27;;;;;;;;;;5061106;28;20284;-60
2022/10/20 04:39:53;;;;;;;54.23;25.37;;;;;;;;;;5052919;28;20903;-62
2022/10/20 04:42:20;;;;;;;52.10;26.47;;;;;;;;;;5052645;28;20217;-61
2022/10/20 04:44:48;;;;;;;50.57;26.87;;;;;;;;;;5058325;28;20832;-61
2022/10/20 04:47:15;;;;;;;47.60;24.03;;;;;;;;;;5067855;28;20206;-61
2022/10/20 04:49:43;;;;;;;37.33;22.73;;;;;;;;;;5053143;28;20247;-61
2022/10/20 04:52:10;;;;;;;46.83;24.10;;;;;;;;;;5061121;28;20259;-63
2022/10/20 04:54:38;;;;;;;46.43;24.33;;;;;;;;;;5065262;28;20340;-61
2022/10/20 04:57:05;;;;;;;37.17;23.53;;;;;;;;;;5056813;28;20202;-61
2022/10/20 04:59:32;;;;;;;40.90;24.77;;;;;;;;;;5049311;28;20224;-61
2022/10/20 05:02:00;;;;;;;39.17;21.97;;;;;;;;;;5060781;28;20298;-61
2022/10/20 05:04:27;;;;;;;60.50;22.67;;;;;;;;;;5054918;28;20209;-61
2022/10/20 05:06:54;;;;;;;42.33;22.73;;;;;;;;;;5055051;28;20208;-62
2022/10/20 05:09:21;;;;;;;37.30;20.73;;;;;;;;;;5061718;28;20836;-63
2022/10/20 05:11:49;;;;;;;30.43;20.37;;;;;;;;;;5053735;28;20212;-62
2022/10/20 05:14:17;;;;;;;34.07;21.93;;;;;;;;;;5056895;28;20236;-62
2022/10/20 05:16:44;;;;;;;40.00;22.00;;;;;;;;;;5067391;28;20198;-61
2022/10/20 05:19:11;;;;;;;41.97;22.50;;;;;;;;;;5053029;28;20308;-62
2022/10/20 05:21:38;;;;;;;34.13;21.57;;;;;;;;;;5056759;28;20289;-61
2022/10/20 05:24:13;;;;;;;42.30;21.70;;;;;;;;;;5048842;28;20623;-61
2022/10/20 05:26:50;;;;;;;35.10;21.00;;;;;;;;;;5052005;28;20221;-62
2022/10/20 05:29:17;;;;;;;42.83;23.27;;;;;;;;;;5052409;28;20230;-60
2022/10/20 05:31:44;;;;;;;40.17;22.70;;;;;;;;;;5046962;28;20605;-60
2022/10/20 05:34:12;;;;;;;54.13;23.53;;;;;;;;;;5075266;28;20259;-62
2022/10/20 05:36:39;;;;;;;32.20;22.43;;;;;;;;;;5063940;28;20683;-61
2022/10/20 05:39:06;;;;;;;38.53;22.60;;;;;;;;;;5070089;28;20225;-62
2022/10/20 05:41:34;;;;;;;54.40;21.80;;;;;;;;;;5057869;28;20260;-61
2022/10/20 05:44:07;;;;;;;50.13;21.40;;;;;;;;;;5062705;28;20205;-63
2022/10/20 05:46:37;;;;;;;48.33;20.47;;;;;;;;;;5055600;28;20698;-61
2022/10/20 05:49:04;;;;;;;32.17;20.70;;;;;;;;;;5061743;28;20236;-60
2022/10/20 05:51:34;;;;;;;44.13;22.87;;;;;;;;;;5039006;28;20234;-61
2022/10/20 05:54:02;;;;;;;33.00;22.80;;;;;;;;;;5061631;28;20291;-61
2022/10/20 05:56:30;;;;;;;80.33;22.13;;;;;;;;;;5062163;28;20297;-63
2022/10/20 05:58:57;;;;;;;26.73;20.63;;;;;;;;;;5060687;28;20218;-60
2022/10/20 06:01:26;;;;;;;47.90;21.10;;;;;;;;;;5051412;28;20225;-62
2022/10/20 06:03:55;;;;;;;32.70;22.00;;;;;;;;;;5056302;28;20279;-61
2022/10/20 06:06:24;;;;;;;41.43;21.43;;;;;;;;;;5059360;28;20297;-61
2022/10/20 06:08:52;;;;;;;30.20;20.40;;;;;;;;;;5048606;28;20218;-61
2022/10/20 06:11:20;;;;;;;34.07;21.90;;;;;;;;;;5059629;28;20232;-61
2022/10/20 06:13:48;;;;;;;34.70;21.70;;;;;;;;;;5071647;28;20210;-62
2022/10/20 06:16:20;;;;;;;37.73;20.57;;;;;;;;;;5060596;28;20274;-61
2022/10/20 06:18:48;;;;;;;45.30;21.13;;;;;;;;;;5072147;28;20226;-61
2022/10/20 06:21:16;;;;;;;80.87;19.20;;;;;;;;;;5062291;28;20736;-61
2022/10/20 06:23:44;;;;;;;42.70;20.23;;;;;;;;;;5060544;28;20909;-63
2022/10/20 06:26:12;;;;;;;32.20;20.00;;;;;;;;;;5057980;28;20198;-61
2022/10/20 06:28:40;;;;;;;43.30;22.03;;;;;;;;;;5064354;28;20229;-64
2022/10/20 06:31:13;;;;;;;51.07;22.47;;;;;;;;;;5066576;28;20210;-61
2022/10/20 06:33:40;;;;;;;44.43;22.10;;;;;;;;;;5064408;28;20679;-63
2022/10/20 06:36:08;;;;;;;30.77;22.10;;;;;;;;;;5065335;28;20659;-62
2022/10/20 06:38:37;;;;;;;37.27;22.40;;;;;;;;;;5063572;28;20229;-63
2022/10/20 06:41:04;;;;;;;55.57;21.80;;;;;;;;;;5053825;28;20367;-61
2022/10/20 06:43:32;;;;;;;52.07;19.27;;;;;;;;;;5064140;28;20201;-60
2022/10/20 06:46:04;;;;;;;27.77;19.83;;;;;;;;;;5068773;28;20610;-61
2022/10/20 06:48:32;;;;;;;29.47;20.73;;;;;;;;;;5070967;28;20233;-61
2022/10/20 06:51:01;;;;;;;27.93;21.00;;;;;;;;;;5061522;28;20745;-61
2022/10/20 06:53:28;;;;;;;60.10;17.97;;;;;;;;;;5062903;28;20255;-62
2022/10/20 06:55:58;;;;;;;39.13;17.40;;;;;;;;;;5075410;28;20299;-63
2022/10/20 06:58:26;;;;;;;31.20;17.43;;;;;;;;;;5070535;28;20312;-62
2022/10/20 07:01:00;;;;;;;31.37;18.70;;;;;;;;;;5063107;28;20209;-61
2022/10/20 07:03:34;;;;;;;26.70;18.90;;;;;;;;;;5058035;28;20206;-61
2022/10/20 07:06:01;;;;;;;26.93;18.37;;;;;;;;;;5051221;28;20207;-61
2022/10/20 07:08:30;;;;;;;41.77;17.97;;;;;;;;;;5048965;28;20228;-61
2022/10/20 07:11:05;;;;;;;27.47;17.40;;;;;;;;;;5063024;28;20289;-62
2022/10/20 07:13:34;;;;;;;26.77;18.00;;;;;;;;;;5055331;28;20305;-63
2022/10/20 07:16:01;;;;;;;33.70;19.80;;;;;;;;;;5060158;28;20591;-62
2022/10/20 07:18:29;;;;;;;30.63;17.10;;;;;;;;;;5076185;28;20358;-61
2022/10/20 07:20:57;;;;;;;25.20;17.30;;;;;;;;;;5069011;28;20232;-61
2022/10/20 07:23:26;;;;;;;36.87;15.57;;;;;;;;;;5090072;28;20671;-63
2022/10/20 07:25:59;;;;;;;19.37;15.60;;;;;;;;;;5065988;28;20201;-62
2022/10/20 07:28:26;;;;;;;43.00;16.60;;;;;;;;;;5053708;28;20610;-63
2022/10/20 07:30:54;;;;;;;21.07;15.90;;;;;;;;;;5046227;28;20303;-62
2022/10/20 07:33:21;;;;;;;36.30;16.80;;;;;;;;;;5070219;28;20201;-63
2022/10/20 07:35:49;;;;;;;31.97;16.87;;;;;;;;;;5066726;28;20266;-63
2022/10/20 07:38:16;;;;;;;26.73;17.17;;;;;;;;;;5070821;28;20221;-63
2022/10/20 07:40:43;;;;;;;24.10;17.43;;;;;;;;;;5063158;28;20308;-62
2022/10/20 07:43:11;;;;;;;24.77;16.97;;;;;;;;;;5062486;28;20249;-62
2022/10/20 07:45:38;;;;;;;23.43;16.50;;;;;;;;;;5072699;28;20201;-63
2022/10/20 07:48:08;;;;;;;22.37;15.73;;;;;;;;;;5066269;28;20412;-63
2022/10/20 07:50:36;;;;;;;18.95;15.13;;;;;;;;;;5057088;28;20678;-62
2022/10/20 07:53:05;;;;;;;19.70;14.60;;;;;;;;;;5062953;28;20205;-63
2022/10/20 07:55:33;;;;;;;27.80;14.35;;;;;;;;;;5060597;28;20287;-63
2022/10/20 07:58:05;;;;;;;31.67;17.48;;;;;;;;;;5066877;28;20297;-62
2022/10/20 08:00:32;;;;;;;22.57;17.53;;;;;;;;;;5067254;28;20225;-62
2022/10/20 08:03:00;;;;;;;18.87;15.33;;;;;;;;;;5055296;28;20248;-62
2022/10/20 08:05:28;;;;;;;19.60;14.98;;;;;;;;;;5050741;28;20708;-62
2022/10/20 08:07:56;;;;;;;16.88;13.88;;;;;;;;;;5054958;28;20354;-62
2022/10/20 08:10:24;;;;;;;18.98;14.32;;;;;;;;;;5063168;28;20325;-63
2022/10/20 08:12:51;;;;;;;19.95;13.85;;;;;;;;;;5073432;28;20404;-62
2022/10/20 08:15:19;;;;;;;26.60;15.00;;;;;;;;;;5069481;28;20215;-62
2022/10/20 08:17:49;;;;;;;16.93;14.40;;;;;;;;;;5055559;28;20233;-63
2022/10/20 08:20:16;;;;;;;18.27;14.30;;;;;;;;;;5052594;28;20222;-62
2022/10/20 08:22:44;;;;;;;18.67;14.88;;;;;;;;;;5058387;28;20237;-62
2022/10/20 08:25:14;;;;;;;16.85;14.13;;;;;;;;;;5052074;28;20254;-63
2022/10/20 08:27:41;;;;;;;19.30;14.97;;;;;;;;;;5059081;28;20221;-61
2022/10/20 08:30:09;;;;;;;16.40;14.20;;;;;;;;;;5071457;28;20215;-61
2022/10/20 08:32:53;;;;;;;15.55;13.52;;;;;;;;;;5063784;28;20233;-62
2022/10/20 08:35:21;;;;;;;22.50;12.63;;;;;;;;;;5067519;28;20275;-61
2022/10/20 08:37:49;;;;;;;15.15;12.48;;;;;;;;;;5070097;28;20312;-61
2022/10/20 08:40:19;;;;;;;17.50;13.98;;;;;;;;;;5074297;28;20209;-61
2022/10/20 08:42:47;;;;;;;16.73;13.52;;;;;;;;;;5051667;28;20294;-63
2022/10/20 08:45:16;;;;;;;17.33;12.82;;;;;;;;;;5063251;28;20460;-61
2022/10/20 08:47:45;;;;;;;15.75;13.27;;;;;;;;;;5069386;28;20701;-62
2022/10/20 08:50:15;;;;;;;18.70;11.85;;;;;;;;;;5071989;28;20232;-62
2022/10/20 08:52:43;;;;;;;15.32;12.00;;;;;;;;;;5067342;28;20205;-62
2022/10/20 08:55:24;;;;;;;12.73;11.30;;;;;;;;;;5053623;28;20322;-63
2022/10/20 08:57:51;;;;;;;14.65;11.60;;;;;;;;;;5063861;28;20308;-62
2022/10/20 09:00:21;;;;;;;12.82;11.27;;;;;;;;;;5050003;28;20205;-62
2022/10/20 09:02:51;;;;;;;12.50;11.07;;;;;;;;;;5055393;28;20771;-60
2022/10/20 09:05:24;;;;;;;11.88;10.68;;;;;;;;;;5052005;28;20202;-61
2022/10/20 09:07:53;;;;;;;11.70;9.90;;;;;;;;;;5050105;28;20226;-61
2022/10/20 09:10:41;;;;;;;11.30;10.20;;;;;;;;;;5036792;28;20206;-62
2022/10/20 09:13:29;;;;;;;13.70;10.98;;;;;;;;;;5054111;28;20232;-63
2022/10/20 09:16:00;;;;;;;11.90;10.57;;;;;;;;;;5052590;28;20211;-63
2022/10/20 09:18:28;;;;;;;12.95;10.45;;;;;;;;;;5051936;28;20294;-62
2022/10/20 09:21:04;;;;;;;13.75;10.85;;;;;;;;;;5059337;28;20215;-62
2022/10/20 09:23:34;;;;;;;12.20;10.40;;;;;;;;;;5065945;28;20764;-62
2022/10/20 09:26:14;;;;;;;12.80;11.38;;;;;;;;;;5069584;28;20297;-62
2022/10/20 09:29:04;;;;;;;12.68;10.85;;;;;;;;;;5063962;28;20671;-62
2022/10/20 09:31:43;;;;;;;15.68;12.10;;;;;;;;;;5063319;28;20984;-62
2022/10/20 09:34:24;;;;;;;15.13;11.52;;;;;;;;;;5069411;28;20228;-63
2022/10/20 09:36:53;;;;;;;13.32;10.75;;;;;;;;;;5060819;28;20209;-62
2022/10/20 09:39:22;;;;;;;13.45;10.73;;;;;;;;;;5059268;28;20227;-62
2022/10/20 09:41:49;;;;;;;12.95;10.70;;;;;;;;;;5067351;28;20347;-62
2022/10/20 09:44:22;;;;;;;11.07;9.95;;;;;;;;;;5061940;28;20268;-63
2022/10/20 09:46:51;;;;;;;11.70;10.02;;;;;;;;;;5059751;28;20237;-62
2022/10/20 09:49:38;;;;;;;12.48;10.57;;;;;;;;;;5062314;28;20220;-63
2022/10/20 09:52:15;;;;;;;12.80;11.50;;;;;;;;;;5082014;28;20754;-62
2022/10/20 09:54:46;;;;;;;12.80;11.38;;;;;;;;;;5056419;28;20296;-62
2022/10/20 09:57:20;;;;;;;11.65;10.52;;;;;;;;;;5064426;28;20301;-62
2022/10/20 09:59:51;;;;;;;12.95;10.95;;;;;;;;;;5068666;28;20316;-62
2022/10/20 10:02:19;;;;;;;12.02;10.73;;;;;;;;;;5065296;28;20324;-62
2022/10/20 10:04:47;;;;;;;12.13;10.90;;;;;;;;;;5067290;28;20284;-62
2022/10/20 10:07:21;;;;;;;13.07;11.65;;;;;;;;;;5055708;28;20230;-63
2022/10/20 10:09:55;;;;;;;14.60;11.02;;;;;;;;;;5067402;28;20316;-62
2022/10/20 10:12:23;;;;;;;12.98;11.55;;;;;;;;;;5063499;28;20611;-62
2022/10/20 10:14:52;;;;;;;13.55;12.15;;;;;;;;;;5062201;28;20658;-62
2022/10/20 10:17:29;;;;;;;13.55;12.00;;;;;;;;;;5054317;28;20258;-62
2022/10/20 10:19:56;;;;;;;13.77;12.27;;;;;;;;;;5073691;28;20212;-62
2022/10/20 10:22:24;;;;;;;13.90;12.40;;;;;;;;;;5062441;28;20217;-60
2022/10/20 10:24:54;;;;;;;13.52;12.20;;;;;;;;;;5060137;28;20209;-62
2022/10/20 10:27:31;;;;;;;14.05;12.60;;;;;;;;;;5061741;28;20659;-62
2022/10/20 10:30:44;;;;;;;18.75;13.65;;;;;;;;;;5061590;28;20205;-60
2022/10/20 10:33:32;;;;;;;14.73;13.20;;;;;;;;;;5052747;28;20209;-62
2022/10/20 10:36:12;;;;;;;16.58;14.25;;;;;;;;;;5052551;28;20284;-60
2022/10/20 10:38:51;;;;;;;18.60;13.07;;;;;;;;;;5059652;28;20306;-62
2022/10/20 10:41:34;;;;;;;14.43;12.93;;;;;;;;;;5051738;28;20805;-60
2022/10/20 10:44:10;;;;;;;15.00;12.35;;;;;;;;;;5058025;28;20206;-63
2022/10/20 10:47:02;;;;;;;15.18;12.52;;;;;;;;;;5047257;28;20234;-62
2022/10/20 10:49:45;;;;;;;15.40;12.52;;;;;;;;;;5059679;28;20261;-62
2022/10/20 10:52:23;;;;;;;16.27;12.90;;;;;;;;;;5048330;28;20208;-63
2022/10/20 10:55:13;;;;;;;17.08;13.18;;;;;;;;;;5060633;28;20205;-60
2022/10/20 10:58:10;;;;;;;14.27;12.73;;;;;;;;;;5034101;28;20233;-61
2022/10/20 11:00:49;;;;;;;16.15;11.82;;;;;;;;;;5063246;28;20216;-62
2022/10/20 11:03:35;;;;;;;15.05;13.45;;;;;;;;;;5052826;28;20209;-61
2022/10/20 11:06:22;;;;;;;18.15;15.75;;;;;;;;;;5058385;28;20206;-61
2022/10/20 11:08:56;;;;;;;14.57;12.32;;;;;;;;;;5061856;28;20829;-61
2022/10/20 11:11:41;;;;;;;15.85;12.48;;;;;;;;;;5065302;28;20204;-61
2022/10/20 11:14:39;;;;;;;15.13;12.40;;;;;;;;;;5055527;28;20219;-61
2022/10/20 11:17:22;;;;;;;19.33;12.00;;;;;;;;;;5071673;28;20740;-61
2022/10/20 11:20:07;;;;;;;15.27;11.00;;;;;;;;;;5065819;28;20251;-61
2022/10/20 11:23:26;;;;;;;13.95;10.88;;;;;;;;;;5056661;28;20237;-61
2022/10/20 11:26:18;;;;;;;14.30;10.95;;;;;;;;;;5003566;28;20812;-60
2022/10/20 11:28:54;;;;;;;13.88;9.88;;;;;;;;;;5032052;28;20310;-61
2022/10/20 11:34:42;;;;;;;12.10;10.65;;;;;;;;;;5057905;28;20214;-61
2022/10/20 11:37:17;;;;;;;12.55;10.20;;;;;;;;;;5051168;28;21677;-62
2022/10/20 11:39:55;;;;;;;12.73;11.15;;;;;;;;;;5059516;28;21022;-61
2022/10/20 11:42:53;;;;;;;13.15;10.82;;;;;;;;;;5059724;28;20856;-60
2022/10/20 11:45:36;;;;;;;12.27;10.95;;;;;;;;;;5057651;28;21588;-61
2022/10/20 11:48:17;;;;;;;12.90;11.25;;;;;;;;;;5047487;28;20630;-61
2022/10/20 11:50:51;;;;;;;11.90;10.73;;;;;;;;;;5045859;28;20285;-61
2022/10/20 11:53:21;;;;;;;22.23;16.33;;;;;;;;;;5054756;28;20569;-61
2022/10/20 11:56:00;;;;;;;13.02;11.68;;;;;;;;;;5061396;28;20878;-62
2022/10/20 11:58:50;;;;;;;14.95;12.20;;;;;;;;;;5061234;28;20481;-61
2022/10/20 12:01:27;;;;;;;17.20;12.60;;;;;;;;;;5067243;28;20628;-62
2022/10/20 12:04:21;;;;;;;15.55;12.57;;;;;;;;;;5059177;28;20221;-62
2022/10/20 12:06:49;;;;;;;13.18;11.75;;;;;;;;;;5053707;28;20198;-61
2022/10/20 12:09:36;;;;;;;13.80;12.23;;;;;;;;;;5058180;28;20693;-61
2022/10/20 12:12:09;;;;;;;14.23;12.73;;;;;;;;;;5057391;28;20194;-61
2022/10/20 12:14:44;;;;;;;16.48;13.52;;;;;;;;;;5058058;28;22426;-62
2022/10/20 12:17:21;;;;;;;15.15;12.38;;;;;;;;;;5061837;28;20897;-61
2022/10/20 12:20:14;;;;;;;13.75;11.80;;;;;;;;;;5060090;28;20230;-62
2022/10/20 12:22:45;;;;;;;13.13;11.73;;;;;;;;;;5081208;28;20229;-61
2022/10/20 12:25:37;;;;;;;12.95;11.65;;;;;;;;;;5067630;28;20198;-61
2022/10/20 12:28:26;;;;;;;18.17;11.60;;;;;;;;;;5065225;28;20776;-61
2022/10/20 12:31:00;;;;;;;13.25;11.35;;;;;;;;;;5088744;28;20211;-63
2022/10/20 12:33:58;;;;;;;13.95;11.45;;;;;;;;;;5065977;28;20214;-62
2022/10/20 12:36:37;;;;;;;16.55;12.68;;;;;;;;;;5062326;28;20296;-64
2022/10/20 12:39:12;;;;;;;15.57;11.82;;;;;;;;;;5066775;28;20241;-61
2022/10/20 12:41:57;;;;;;;14.60;12.00;;;;;;;;;;5050731;28;20214;-61
2022/10/20 12:44:26;;;;;;;17.08;13.93;;;;;;;;;;5060102;28;20229;-62
2022/10/20 12:47:07;;;;;;;17.10;12.98;;;;;;;;;;5055220;28;20200;-60
2022/10/20 12:49:43;;;;;;;20.63;15.05;;;;;;;;;;5061108;28;20270;-61
2022/10/20 12:52:23;;;;;;;22.48;15.73;;;;;;;;;;5065991;28;20205;-61
2022/10/20 12:55:09;;;;;;;18.48;14.75;;;;;;;;;;5066822;28;20580;-61
2022/10/20 12:57:46;;;;;;;17.88;15.07;;;;;;;;;;5065116;28;20644;-61
2022/10/20 13:00:16;;;;;;;21.90;17.60;;;;;;;;;;5055627;28;20205;-61
2022/10/20 13:02:50;;;;;;;17.58;14.65;;;;;;;;;;5060317;28;20208;-61
2022/10/20 13:05:22;;;;;;;19.25;13.75;;;;;;;;;;5058083;28;20201;-63
2022/10/20 13:07:51;;;;;;;17.10;13.85;;;;;;;;;;5065893;28;20271;-62
2022/10/20 13:10:29;;;;;;;16.25;13.02;;;;;;;;;;5058465;28;20297;-61
2022/10/20 13:13:03;;;;;;;14.77;13.07;;;;;;;;;;5071671;28;20224;-64
2022/10/20 13:15:34;;;;;;;14.20;12.65;;;;;;;;;;5061766;28;20209;-61
2022/10/20 13:18:19;;;;;;;14.73;13.32;;;;;;;;;;5052061;28;20236;-63
2022/10/20 13:20:48;;;;;;;19.30;14.10;;;;;;;;;;5057639;28;20274;-61
2022/10/20 13:23:22;;;;;;;15.57;13.00;;;;;;;;;;5062284;28;20225;-63
2022/10/20 13:25:56;;;;;;;14.75;13.15;;;;;;;;;;5067429;28;20193;-62
2022/10/20 13:28:31;;;;;;;17.88;13.88;;;;;;;;;;5069586;28;20568;-62
2022/10/20 13:31:05;;;;;;;17.10;13.60;;;;;;;;;;5059346;28;20203;-62
2022/10/20 13:33:37;;;;;;;14.85;13.25;;;;;;;;;;5070016;28;20714;-62
2022/10/20 13:36:50;;;;;;;15.40;12.15;;;;;;;;;;5054923;28;20244;-62
2022/10/20 13:39:39;;;;;;;16.20;12.63;;;;;;;;;;5055644;28;20229;-62
2022/10/20 13:42:26;;;;;;;15.40;12.18;;;;;;;;;;5067090;28;20630;-62
2022/10/20 13:44:58;;;;;;;16.27;13.00;;;;;;;;;;5066813;28;20619;-62
2022/10/20 13:47:49;;;;;;;18.88;13.82;;;;;;;;;;5066319;28;20587;-63
2022/10/20 13:50:46;;;;;;;15.60;12.70;;;;;;;;;;5058746;28;20545;-63
2022/10/20 13:53:20;;;;;;;19.13;14.27;;;;;;;;;;5055072;28;20259;-62
2022/10/20 13:56:29;;;;;;;17.65;13.48;;;;;;;;;;5062790;28;20608;-62
2022/10/20 13:59:16;;;;;;;22.85;14.52;;;;;;;;;;5058930;28;20225;-62
2022/10/20 14:01:51;;;;;;;20.88;14.32;;;;;;;;;;5054614;28;20206;-61
2022/10/20 14:04:34;;;;;;;18.05;13.75;;;;;;;;;;5058972;28;20648;-63
2022/10/20 14:07:28;;;;;;;20.05;15.20;;;;;;;;;;5054097;28;20575;-62
2022/10/20 14:09:57;;;;;;;22.15;15.13;;;;;;;;;;5059753;28;20206;-62
2022/10/20 14:12:26;;;;;;;22.77;16.02;;;;;;;;;;5051339;28;20297;-62
2022/10/20 14:15:00;;;;;;;18.33;14.10;;;;;;;;;;5061799;28;20210;-62
2022/10/20 14:17:31;;;;;;;21.52;14.68;;;;;;;;;;5054795;28;20197;-62
2022/10/20 14:20:21;;;;;;;18.27;14.15;;;;;;;;;;5064484;28;20676;-62
2022/10/20 14:22:57;;;;;;;17.35;14.02;;;;;;;;;;5058361;28;20220;-62
2022/10/20 14:25:33;;;;;;;19.35;14.48;;;;;;;;;;5057919;28;20201;-62
2022/10/20 14:28:01;;;;;;;19.98;14.55;;;;;;;;;;5067096;28;20384;-62
2022/10/20 14:30:33;;;;;;;21.90;15.32;;;;;;;;;;5056064;28;20916;-61
2022/10/20 14:33:11;;;;;;;20.30;15.38;;;;;;;;;;5047039;28;20296;-62
2022/10/20 14:35:40;;;;;;;17.75;13.65;;;;;;;;;;5049996;28;20209;-62
2022/10/20 14:38:16;;;;;;;21.10;15.20;;;;;;;;;;5052382;28;20225;-62
2022/10/20 14:40:48;;;;;;;18.25;14.30;;;;;;;;;;5060925;28;20196;-62
2022/10/20 14:43:18;;;;;;;18.73;14.05;;;;;;;;;;5066572;28;20317;-62
2022/10/20 14:45:56;;;;;;;16.25;13.85;;;;;;;;;;5064653;28;20292;-62
2022/10/20 14:48:24;;;;;;;16.13;13.90;;;;;;;;;;5062058;28;20730;-62
2022/10/20 14:50:52;;;;;;;21.13;14.98;;;;;;;;;;5066310;28;20193;-62
2022/10/20 14:53:26;;;;;;;16.55;13.70;;;;;;;;;;5067986;28;20753;-62